createdAt,value
2019-02-10T00:00:35.965Z,960.81
2019-02-10T00:01:35.910Z,960.80
2019-02-10T00:02:35.855Z,960.79
2019-02-10T00:03:35.839Z,960.76
2019-02-10T00:04:35.754Z,960.80
2019-02-10T00:05:35.685Z,960.72
2019-02-10T00:06:35.629Z,960.75
2019-02-10T00:07:35.573Z,960.69
2019-02-10T00:08:35.549Z,960.74
2019-02-10T00:09:35.460Z,960.77
2019-02-10T00:10:35.404Z,960.69
2019-02-10T00:11:35.372Z,960.68
2019-02-10T00:12:35.298Z,960.71
2019-02-10T00:13:35.242Z,960.68
2019-02-10T00:14:35.215Z,960.68
2019-02-10T00:15:35.137Z,960.72
2019-02-10T00:16:35.069Z,960.64
2019-02-10T00:17:35.015Z,960.66
2019-02-10T00:18:34.961Z,960.63
2019-02-10T00:19:34.941Z,960.63
2019-02-10T00:20:34.871Z,960.63
2019-02-10T00:21:34.789Z,960.60
2019-02-10T00:22:34.769Z,960.62
2019-02-10T00:23:34.679Z,960.59
2019-02-10T00:24:34.624Z,960.56
2019-02-10T00:25:34.570Z,960.53
2019-02-10T00:26:34.541Z,960.54
2019-02-10T00:27:34.453Z,960.51
2019-02-10T00:28:34.399Z,960.47
2019-02-10T00:29:34.343Z,960.47
2019-02-10T00:30:34.287Z,960.43
2019-02-10T00:31:34.272Z,960.42
2019-02-10T00:32:34.177Z,960.43
2019-02-10T00:33:34.119Z,960.44
2019-02-10T00:34:34.064Z,960.35
2019-02-10T00:35:34.041Z,960.31
2019-02-10T00:36:33.951Z,960.28
2019-02-10T00:37:34.131Z,960.30
2019-02-10T00:38:33.843Z,960.27
2019-02-10T00:39:33.824Z,960.26
2019-02-10T00:40:33.729Z,960.26
2019-02-10T00:41:33.671Z,960.22
2019-02-10T00:42:33.614Z,960.21
2019-02-10T00:43:33.558Z,960.17
2019-02-10T00:44:33.555Z,960.17
2019-02-10T00:45:33.449Z,960.17
2019-02-10T00:46:33.391Z,960.11
2019-02-10T00:47:33.335Z,960.18
2019-02-10T00:48:33.296Z,960.15
2019-02-10T00:49:33.265Z,960.11
2019-02-10T00:50:33.170Z,960.10
2019-02-10T00:51:33.115Z,960.01
2019-02-10T00:52:33.060Z,960.07
2019-02-10T00:53:33.002Z,960.07
2019-02-10T00:54:32.978Z,960.01
2019-02-10T00:55:32.891Z,959.96
2019-02-10T00:56:32.866Z,959.96
2019-02-10T00:57:32.782Z,959.99
2019-02-10T00:58:32.721Z,959.94
2019-02-10T00:59:32.666Z,959.89
2019-02-10T01:00:32.656Z,959.87
2019-02-10T01:01:32.587Z,959.83
2019-02-10T01:02:32.509Z,959.79
2019-02-10T01:03:32.447Z,959.74
2019-02-10T01:04:32.390Z,959.71
2019-02-10T01:05:32.362Z,959.68
2019-02-10T01:06:32.274Z,959.64
2019-02-10T01:07:32.217Z,959.61
2019-02-10T01:08:32.194Z,959.61
2019-02-10T01:09:32.107Z,959.54
2019-02-10T01:10:32.051Z,959.53
2019-02-10T01:11:31.992Z,959.53
2019-02-10T01:12:31.940Z,959.47
2019-02-10T01:13:31.912Z,959.54
2019-02-10T01:14:31.824Z,959.44
2019-02-10T01:15:31.781Z,959.45
2019-02-10T01:16:31.745Z,959.40
2019-02-10T01:17:31.663Z,959.37
2019-02-10T01:18:31.601Z,959.33
2019-02-10T01:19:31.546Z,959.30
2019-02-10T01:20:31.531Z,959.26
2019-02-10T01:21:31.433Z,959.19
2019-02-10T01:22:31.376Z,959.19
2019-02-10T01:23:31.325Z,959.19
2019-02-10T01:24:31.266Z,959.16
2019-02-10T01:25:31.248Z,959.17
2019-02-10T01:26:31.152Z,959.23
2019-02-10T01:27:31.098Z,959.25
2019-02-10T01:28:31.040Z,959.26
2019-02-10T01:29:30.985Z,959.23
2019-02-10T01:30:30.962Z,959.21
2019-02-10T01:31:30.903Z,959.25
2019-02-10T01:32:30.817Z,959.30
2019-02-10T01:33:30.759Z,959.24
2019-02-10T01:34:30.702Z,959.23
2019-02-10T01:35:30.651Z,959.21
2019-02-10T01:36:30.641Z,959.19
2019-02-10T01:37:30.542Z,959.22
2019-02-10T01:38:30.480Z,959.23
2019-02-10T01:39:30.423Z,959.26
2019-02-10T01:40:30.371Z,959.18
2019-02-10T01:41:30.360Z,959.13
2019-02-10T01:42:30.257Z,959.12
2019-02-10T01:43:30.206Z,959.20
2019-02-10T01:44:30.144Z,959.18
2019-02-10T01:45:30.087Z,959.09
2019-02-10T01:46:30.060Z,959.09
2019-02-10T01:47:29.975Z,959.06
2019-02-10T01:48:29.942Z,959.07
2019-02-10T01:49:29.867Z,959.01
2019-02-10T01:50:29.814Z,958.94
2019-02-10T01:51:29.751Z,958.81
2019-02-10T01:52:29.693Z,958.72
2019-02-10T01:53:29.689Z,958.70
2019-02-10T01:54:29.581Z,958.72
2019-02-10T01:55:29.527Z,958.66
2019-02-10T01:56:29.474Z,958.60
2019-02-10T01:57:29.414Z,958.60
2019-02-10T01:58:29.407Z,958.63
2019-02-10T01:59:29.302Z,958.65
2019-02-10T02:00:29.247Z,958.60
2019-02-10T02:01:29.188Z,958.57
2019-02-10T02:02:29.135Z,958.53
2019-02-10T02:03:29.107Z,958.54
2019-02-10T02:04:29.020Z,958.55
2019-02-10T02:05:28.997Z,958.58
2019-02-10T02:06:28.910Z,958.61
2019-02-10T02:07:28.854Z,958.56
2019-02-10T02:08:28.798Z,958.50
2019-02-10T02:09:28.746Z,958.51
2019-02-10T02:10:28.725Z,958.39
2019-02-10T02:11:28.628Z,958.39
2019-02-10T02:12:28.571Z,958.37
2019-02-10T02:13:28.517Z,958.32
2019-02-10T02:14:28.458Z,958.43
2019-02-10T02:15:28.455Z,958.33
2019-02-10T02:16:28.348Z,958.21
2019-02-10T02:17:28.295Z,958.25
2019-02-10T02:18:28.234Z,958.21
2019-02-10T02:19:28.177Z,958.21
2019-02-10T02:20:28.155Z,958.28
2019-02-10T02:21:28.067Z,958.19
2019-02-10T02:22:28.012Z,958.28
2019-02-10T02:23:27.958Z,958.24
2019-02-10T02:24:27.922Z,958.20
2019-02-10T02:25:27.871Z,958.19
2019-02-10T02:26:27.815Z,958.14
2019-02-10T02:27:27.730Z,958.17
2019-02-10T02:28:27.673Z,958.07
2019-02-10T02:29:27.617Z,958.09
2019-02-10T02:30:27.566Z,958.11
2019-02-10T02:31:27.534Z,958.10
2019-02-10T02:32:27.448Z,958.04
2019-02-10T02:33:27.389Z,957.96
2019-02-10T02:34:27.332Z,957.93
2019-02-10T02:35:27.280Z,957.91
2019-02-10T02:36:27.250Z,957.84
2019-02-10T02:37:27.163Z,957.86
2019-02-10T02:38:27.111Z,957.82
2019-02-10T02:39:27.085Z,957.85
2019-02-10T02:40:26.993Z,957.75
2019-02-10T02:41:26.937Z,957.70
2019-02-10T02:42:26.880Z,957.67
2019-02-10T02:43:26.823Z,957.65
2019-02-10T02:44:26.799Z,957.62
2019-02-10T02:45:26.716Z,957.54
2019-02-10T02:46:26.654Z,957.52
2019-02-10T02:47:26.596Z,957.50
2019-02-10T02:48:26.543Z,957.44
2019-02-10T02:49:26.514Z,957.44
2019-02-10T02:50:26.458Z,957.37
2019-02-10T02:51:26.370Z,957.33
2019-02-10T02:52:26.318Z,957.28
2019-02-10T02:53:26.257Z,957.23
2019-02-10T02:54:26.201Z,957.22
2019-02-10T02:55:26.173Z,957.22
2019-02-10T02:56:26.086Z,957.27
2019-02-10T02:57:26.030Z,957.23
2019-02-10T02:58:25.972Z,957.15
2019-02-10T02:59:25.915Z,957.12
2019-02-10T03:00:25.891Z,957.08
2019-02-10T03:01:25.802Z,957.04
2019-02-10T03:02:25.744Z,957.03
2019-02-10T03:03:25.720Z,957.06
2019-02-10T03:04:25.631Z,957.00
2019-02-10T03:05:25.584Z,957.02
2019-02-10T03:06:25.518Z,957.02
2019-02-10T03:07:25.462Z,957.04
2019-02-10T03:08:25.440Z,957.03
2019-02-10T03:09:25.368Z,956.98
2019-02-10T03:10:25.298Z,956.87
2019-02-10T03:11:25.232Z,956.84
2019-02-10T03:12:25.176Z,956.83
2019-02-10T03:13:25.154Z,956.84
2019-02-10T03:14:25.063Z,956.86
2019-02-10T03:15:25.037Z,956.86
2019-02-10T03:16:24.955Z,956.86
2019-02-10T03:17:24.891Z,956.86
2019-02-10T03:18:24.834Z,956.90
2019-02-10T03:19:24.829Z,956.95
2019-02-10T03:20:24.728Z,956.92
2019-02-10T03:21:24.718Z,956.89
2019-02-10T03:22:24.612Z,956.91
2019-02-10T03:23:24.555Z,956.89
2019-02-10T03:24:24.566Z,956.89
2019-02-10T03:25:24.448Z,956.89
2019-02-10T03:26:24.381Z,956.94
2019-02-10T03:27:24.322Z,956.87
2019-02-10T03:28:24.270Z,956.83
2019-02-10T03:29:24.239Z,956.82
2019-02-10T03:30:24.168Z,956.90
2019-02-10T03:31:24.105Z,956.85
2019-02-10T03:32:24.046Z,956.80
2019-02-10T03:33:23.988Z,956.87
2019-02-10T03:34:23.956Z,956.87
2019-02-10T03:35:23.867Z,956.84
2019-02-10T03:36:23.817Z,956.81
2019-02-10T03:37:27.218Z,956.75
2019-02-10T03:38:23.699Z,956.76
2019-02-10T03:39:23.646Z,956.68
2019-02-10T03:40:23.584Z,956.70
2019-02-10T03:41:23.529Z,956.68
2019-02-10T03:42:23.502Z,956.67
2019-02-10T03:43:23.413Z,956.60
2019-02-10T03:44:29.957Z,956.55
2019-02-10T03:45:23.301Z,956.57
2019-02-10T03:46:23.276Z,956.49
2019-02-10T03:47:23.202Z,956.40
2019-02-10T03:48:23.167Z,956.42
2019-02-10T03:49:23.074Z,956.40
2019-02-10T03:50:23.019Z,956.35
2019-02-10T03:51:22.959Z,956.33
2019-02-10T03:52:22.904Z,956.39
2019-02-10T03:53:22.875Z,956.34
2019-02-10T03:54:22.788Z,956.34
2019-02-10T03:55:22.740Z,956.26
2019-02-10T03:56:22.674Z,956.21
2019-02-10T03:57:22.619Z,956.25
2019-02-10T03:58:22.598Z,956.20
2019-02-10T03:59:22.538Z,956.19
2019-02-10T04:00:22.448Z,956.20
2019-02-10T04:01:22.393Z,956.06
2019-02-10T04:02:22.335Z,956.09
2019-02-10T04:03:22.283Z,956.06
2019-02-10T04:04:22.254Z,956.02
2019-02-10T04:05:22.166Z,955.93
2019-02-10T04:06:22.110Z,955.95
2019-02-10T04:07:22.075Z,955.93
2019-02-10T04:08:21.995Z,955.86
2019-02-10T04:09:21.939Z,955.81
2019-02-10T04:10:21.881Z,955.76
2019-02-10T04:11:21.857Z,955.71
2019-02-10T04:12:21.769Z,955.68
2019-02-10T04:13:21.747Z,955.62
2019-02-10T04:14:21.655Z,955.57
2019-02-10T04:15:21.596Z,955.51
2019-02-10T04:16:21.541Z,955.45
2019-02-10T04:17:21.491Z,955.37
2019-02-10T04:18:21.458Z,955.27
2019-02-10T04:19:21.416Z,955.19
2019-02-10T04:20:21.316Z,955.21
2019-02-10T04:21:21.259Z,955.20
2019-02-10T04:22:21.232Z,955.13
2019-02-10T04:23:21.147Z,955.19
2019-02-10T04:24:21.094Z,955.15
2019-02-10T04:25:21.087Z,955.10
2019-02-10T04:26:20.977Z,955.11
2019-02-10T04:27:20.973Z,955.05
2019-02-10T04:28:20.866Z,955.00
2019-02-10T04:29:20.808Z,954.95
2019-02-10T04:30:20.752Z,954.94
2019-02-10T04:31:20.696Z,954.98
2019-02-10T04:32:20.661Z,954.90
2019-02-10T04:33:20.580Z,954.96
2019-02-10T04:34:20.524Z,954.94
2019-02-10T04:35:20.465Z,954.80
2019-02-10T04:36:20.411Z,954.85
2019-02-10T04:37:20.394Z,954.84
2019-02-10T04:38:20.303Z,954.90
2019-02-10T04:39:20.241Z,954.90
2019-02-10T04:40:20.191Z,954.87
2019-02-10T04:41:20.132Z,954.88
2019-02-10T04:42:20.111Z,954.86
2019-02-10T04:43:20.033Z,954.82
2019-02-10T04:44:19.958Z,954.91
2019-02-10T04:45:19.909Z,954.87
2019-02-10T04:46:19.846Z,954.93
2019-02-10T04:47:19.823Z,954.86
2019-02-10T04:48:19.769Z,954.86
2019-02-10T04:49:19.686Z,954.84
2019-02-10T04:50:19.619Z,954.82
2019-02-10T04:51:19.566Z,954.79
2019-02-10T04:52:19.508Z,954.72
2019-02-10T04:53:19.484Z,954.70
2019-02-10T04:54:19.397Z,954.72
2019-02-10T04:55:19.337Z,954.70
2019-02-10T04:56:19.283Z,954.66
2019-02-10T04:57:19.230Z,954.71
2019-02-10T04:58:19.209Z,954.77
2019-02-10T04:59:19.113Z,954.66
2019-02-10T05:00:19.056Z,954.65
2019-02-10T05:01:18.999Z,954.65
2019-02-10T05:02:18.942Z,954.58
2019-02-10T05:03:18.919Z,954.72
2019-02-10T05:04:18.861Z,954.65
2019-02-10T05:05:18.774Z,954.68
2019-02-10T05:06:18.720Z,954.69
2019-02-10T05:07:18.660Z,954.63
2019-02-10T05:08:18.634Z,954.60
2019-02-10T05:09:18.551Z,954.52
2019-02-10T05:10:18.490Z,954.45
2019-02-10T05:11:18.437Z,954.41
2019-02-10T05:12:18.379Z,954.39
2019-02-10T05:13:18.363Z,954.38
2019-02-10T05:14:18.264Z,954.35
2019-02-10T05:15:18.216Z,954.36
2019-02-10T05:16:18.150Z,954.24
2019-02-10T05:17:18.094Z,954.36
2019-02-10T05:18:18.071Z,954.36
2019-02-10T05:19:17.980Z,954.24
2019-02-10T05:20:17.924Z,954.25
2019-02-10T05:21:17.868Z,954.23
2019-02-10T05:22:17.844Z,954.25
2019-02-10T05:23:17.758Z,954.20
2019-02-10T05:24:17.700Z,954.17
2019-02-10T05:25:17.664Z,954.16
2019-02-10T05:26:17.599Z,954.07
2019-02-10T05:27:17.562Z,954.00
2019-02-10T05:28:17.469Z,954.06
2019-02-10T05:29:17.420Z,954.03
2019-02-10T05:30:17.390Z,954.02
2019-02-10T05:31:17.301Z,953.95
2019-02-10T05:32:17.282Z,953.90
2019-02-10T05:33:17.216Z,953.83
2019-02-10T05:34:17.143Z,953.82
2019-02-10T05:35:17.072Z,953.79
2019-02-10T05:36:17.049Z,953.80
2019-02-10T05:37:16.961Z,953.78
2019-02-10T05:38:16.902Z,953.71
2019-02-10T05:39:16.883Z,953.68
2019-02-10T05:40:16.825Z,953.69
2019-02-10T05:41:16.732Z,953.64
2019-02-10T05:42:16.707Z,953.68
2019-02-10T05:43:16.618Z,953.63
2019-02-10T05:44:16.561Z,953.66
2019-02-10T05:45:16.504Z,953.48
2019-02-10T05:46:16.445Z,953.50
2019-02-10T05:47:16.427Z,953.50
2019-02-10T05:48:16.333Z,953.55
2019-02-10T05:49:16.277Z,953.56
2019-02-10T05:50:16.223Z,953.53
2019-02-10T05:51:16.162Z,953.55
2019-02-10T05:52:16.136Z,953.51
2019-02-10T05:53:16.048Z,953.67
2019-02-10T05:54:15.992Z,953.52
2019-02-10T05:55:15.937Z,953.48
2019-02-10T05:56:15.877Z,953.47
2019-02-10T05:57:15.853Z,953.46
2019-02-10T05:58:15.764Z,953.45
2019-02-10T05:59:15.708Z,953.36
2019-02-10T06:00:15.649Z,953.28
2019-02-10T06:01:15.595Z,953.34
2019-02-10T06:02:15.565Z,953.24
2019-02-10T06:03:15.478Z,953.24
2019-02-10T06:04:15.418Z,953.19
2019-02-10T06:05:15.364Z,953.13
2019-02-10T06:06:15.309Z,953.22
2019-02-10T06:07:16.673Z,953.07
2019-02-10T06:08:15.202Z,953.04
2019-02-10T06:09:15.134Z,952.99
2019-02-10T06:10:15.081Z,952.99
2019-02-10T06:11:15.052Z,952.96
2019-02-10T06:12:14.972Z,953.03
2019-02-10T06:13:14.906Z,953.02
2019-02-10T06:14:14.849Z,952.95
2019-02-10T06:15:14.794Z,952.94
2019-02-10T06:16:14.770Z,952.95
2019-02-10T06:17:14.678Z,952.85
2019-02-10T06:18:14.621Z,952.86
2019-02-10T06:19:14.576Z,952.86
2019-02-10T06:20:14.509Z,952.80
2019-02-10T06:21:14.483Z,952.67
2019-02-10T06:22:14.391Z,952.62
2019-02-10T06:23:14.339Z,952.74
2019-02-10T06:24:14.281Z,952.68
2019-02-10T06:25:14.226Z,952.63
2019-02-10T06:26:14.221Z,952.59
2019-02-10T06:27:14.111Z,952.60
2019-02-10T06:28:14.054Z,952.64
2019-02-10T06:29:13.995Z,952.67
2019-02-10T06:30:13.939Z,952.71
2019-02-10T06:31:13.913Z,952.57
2019-02-10T06:32:13.823Z,952.58
2019-02-10T06:33:13.767Z,952.57
2019-02-10T06:34:13.711Z,952.57
2019-02-10T06:35:13.682Z,952.56
2019-02-10T06:36:13.599Z,952.59
2019-02-10T06:37:13.540Z,952.42
2019-02-10T06:38:21.912Z,952.46
2019-02-10T06:39:13.423Z,952.36
2019-02-10T06:40:13.376Z,952.44
2019-02-10T06:41:13.312Z,952.41
2019-02-10T06:42:13.255Z,952.29
2019-02-10T06:43:13.227Z,952.41
2019-02-10T06:44:13.139Z,952.38
2019-02-10T06:45:13.083Z,952.25
2019-02-10T06:46:13.025Z,952.26
2019-02-10T06:47:12.969Z,952.27
2019-02-10T06:48:12.952Z,952.23
2019-02-10T06:49:12.856Z,952.13
2019-02-10T06:50:12.798Z,952.07
2019-02-10T06:51:12.742Z,952.15
2019-02-10T06:52:12.685Z,952.04
2019-02-10T06:53:12.660Z,952.10
2019-02-10T06:54:12.571Z,952.11
2019-02-10T06:55:12.514Z,952.15
2019-02-10T06:56:12.457Z,952.10
2019-02-10T06:57:12.400Z,952.13
2019-02-10T06:58:12.373Z,952.13
2019-02-10T06:59:12.317Z,952.14
2019-02-10T07:00:12.227Z,952.05
2019-02-10T07:01:12.203Z,952.03
2019-02-10T07:02:12.115Z,951.99
2019-02-10T07:03:12.058Z,951.93
2019-02-10T07:04:12.000Z,952.05
2019-02-10T07:05:11.943Z,952.01
2019-02-10T07:06:11.926Z,951.98
2019-02-10T07:07:11.836Z,952.04
2019-02-10T07:08:11.774Z,951.99
2019-02-10T07:09:11.715Z,951.94
2019-02-10T07:10:11.659Z,951.93
2019-02-10T07:11:11.630Z,952.02
2019-02-10T07:12:11.578Z,951.93
2019-02-10T07:13:11.488Z,951.94
2019-02-10T07:14:13.225Z,951.87
2019-02-10T07:15:11.374Z,952.00
2019-02-10T07:16:11.319Z,951.86
2019-02-10T07:17:11.292Z,951.88
2019-02-10T07:18:11.207Z,951.89
2019-02-10T07:19:11.147Z,951.86
2019-02-10T07:20:11.120Z,951.91
2019-02-10T07:21:11.035Z,951.66
2019-02-10T07:22:10.983Z,951.84
2019-02-10T07:23:10.919Z,951.85
2019-02-10T07:24:10.867Z,951.86
2019-02-10T07:25:10.840Z,951.84
2019-02-10T07:26:10.748Z,951.86
2019-02-10T07:27:10.692Z,951.81
2019-02-10T07:28:10.634Z,951.78
2019-02-10T07:29:10.610Z,951.73
2019-02-10T07:30:10.521Z,951.73
2019-02-10T07:31:10.463Z,951.88
2019-02-10T07:32:10.408Z,951.69
2019-02-10T07:33:10.381Z,951.66
2019-02-10T07:34:10.295Z,951.80
2019-02-10T07:35:10.238Z,951.70
2019-02-10T07:36:10.181Z,951.68
2019-02-10T07:37:10.125Z,951.57
2019-02-10T07:38:10.108Z,951.57
2019-02-10T07:39:10.014Z,951.61
2019-02-10T07:40:09.951Z,951.63
2019-02-10T07:41:09.898Z,951.64
2019-02-10T07:42:09.839Z,951.63
2019-02-10T07:43:09.825Z,951.50
2019-02-10T07:44:09.756Z,951.58
2019-02-10T07:45:09.669Z,951.58
2019-02-10T07:46:09.611Z,951.50
2019-02-10T07:47:09.558Z,951.45
2019-02-10T07:48:09.511Z,951.46
2019-02-10T07:49:09.480Z,951.44
2019-02-10T07:50:09.385Z,951.47
2019-02-10T07:51:09.327Z,951.41
2019-02-10T07:52:09.269Z,951.40
2019-02-10T07:53:09.212Z,951.35
2019-02-10T07:54:09.189Z,951.39
2019-02-10T07:55:09.104Z,951.18
2019-02-10T07:56:09.041Z,951.31
2019-02-10T07:57:08.986Z,951.05
2019-02-10T07:58:08.961Z,951.05
2019-02-10T07:59:08.869Z,951.00
2019-02-10T08:00:08.830Z,950.96
2019-02-10T08:01:08.759Z,951.11
2019-02-10T08:02:08.744Z,950.87
2019-02-10T08:03:08.647Z,950.71
2019-02-10T08:04:08.589Z,950.92
2019-02-10T08:05:08.534Z,950.76
2019-02-10T08:06:08.472Z,950.75
2019-02-10T08:07:09.276Z,950.89
2019-02-10T08:08:08.362Z,950.61
2019-02-10T08:09:08.304Z,950.62
2019-02-10T08:10:08.246Z,950.65
2019-02-10T08:11:08.193Z,950.57
2019-02-10T08:12:08.174Z,950.51
2019-02-10T08:13:08.076Z,950.45
2019-02-10T08:14:08.020Z,950.40
2019-02-10T08:15:07.962Z,950.31
2019-02-10T08:16:08.828Z,950.27
2019-02-10T08:17:07.879Z,950.27
2019-02-10T08:18:07.794Z,950.28
2019-02-10T08:19:07.738Z,950.26
2019-02-10T08:20:07.682Z,950.32
2019-02-10T08:21:07.658Z,950.23
2019-02-10T08:22:07.598Z,950.24
2019-02-10T08:23:07.507Z,950.26
2019-02-10T08:24:07.452Z,950.19
2019-02-10T08:25:07.396Z,949.86
2019-02-10T08:26:07.371Z,950.09
2019-02-10T08:27:07.321Z,950.08
2019-02-10T08:28:07.226Z,950.10
2019-02-10T08:29:07.171Z,950.07
2019-02-10T08:30:07.111Z,950.00
2019-02-10T08:31:07.054Z,949.95
2019-02-10T08:32:07.027Z,950.04
2019-02-10T08:33:06.943Z,949.89
2019-02-10T08:34:06.882Z,949.97
2019-02-10T08:35:06.826Z,949.85
2019-02-10T08:36:06.800Z,949.84
2019-02-10T08:37:06.752Z,949.78
2019-02-10T08:38:06.663Z,949.75
2019-02-10T08:39:06.605Z,949.72
2019-02-10T08:40:06.546Z,949.68
2019-02-10T08:41:06.488Z,949.62
2019-02-10T08:42:06.465Z,949.55
2019-02-10T08:43:06.377Z,949.58
2019-02-10T08:44:06.322Z,949.44
2019-02-10T08:45:06.260Z,949.45
2019-02-10T08:46:06.242Z,949.44
2019-02-10T08:47:06.148Z,949.45
2019-02-10T08:48:06.093Z,949.30
2019-02-10T08:49:06.061Z,949.42
2019-02-10T08:50:05.979Z,949.23
2019-02-10T08:51:05.948Z,949.31
2019-02-10T08:52:05.865Z,949.38
2019-02-10T08:53:05.840Z,949.28
2019-02-10T08:54:05.784Z,949.30
2019-02-10T08:55:05.695Z,949.29
2019-02-10T08:56:05.636Z,949.23
2019-02-10T08:57:05.580Z,949.36
2019-02-10T08:58:05.556Z,949.34
2019-02-10T08:59:05.503Z,949.23
2019-02-10T09:00:05.422Z,949.27
2019-02-10T09:01:05.361Z,949.17
2019-02-10T09:02:05.304Z,949.24
2019-02-10T09:03:05.242Z,949.28
2019-02-10T09:04:05.222Z,949.33
2019-02-10T09:05:05.130Z,949.31
2019-02-10T09:06:05.070Z,949.35
2019-02-10T09:07:05.015Z,949.29
2019-02-10T09:08:04.958Z,949.25
2019-02-10T09:09:04.936Z,949.13
2019-02-10T09:10:04.845Z,949.03
2019-02-10T09:11:04.790Z,948.99
2019-02-10T09:12:04.732Z,949.09
2019-02-10T09:13:04.677Z,949.19
2019-02-10T09:14:04.681Z,949.22
2019-02-10T09:15:04.565Z,949.17
2019-02-10T09:16:04.518Z,949.18
2019-02-10T09:17:04.507Z,949.13
2019-02-10T09:18:04.421Z,949.20
2019-02-10T09:19:04.337Z,949.21
2019-02-10T09:20:04.280Z,949.20
2019-02-10T09:21:04.230Z,949.11
2019-02-10T09:22:04.203Z,949.22
2019-02-10T09:23:04.111Z,949.28
2019-02-10T09:24:04.056Z,949.21
2019-02-10T09:25:04.043Z,949.18
2019-02-10T09:26:03.953Z,949.17
2019-02-10T09:27:03.886Z,949.15
2019-02-10T09:28:03.855Z,949.21
2019-02-10T09:29:03.772Z,949.06
2019-02-10T09:30:03.746Z,949.04
2019-02-10T09:31:03.661Z,949.11
2019-02-10T09:32:03.607Z,949.06
2019-02-10T09:33:03.560Z,949.03
2019-02-10T09:34:03.489Z,949.04
2019-02-10T09:35:03.475Z,948.93
2019-02-10T09:36:03.380Z,949.00
2019-02-10T09:37:03.321Z,948.99
2019-02-10T09:38:03.315Z,949.05
2019-02-10T09:39:10.452Z,949.03
2019-02-10T09:40:03.198Z,948.82
2019-02-10T09:41:03.128Z,948.86
2019-02-10T09:42:03.038Z,948.81
2019-02-10T09:43:02.982Z,948.75
2019-02-10T09:44:02.927Z,948.75
2019-02-10T09:45:02.891Z,948.84
2019-02-10T09:46:02.862Z,948.84
2019-02-10T09:47:02.761Z,948.69
2019-02-10T09:48:02.709Z,948.60
2019-02-10T09:49:02.647Z,948.55
2019-02-10T09:50:02.591Z,948.58
2019-02-10T09:51:02.562Z,948.59
2019-02-10T09:52:02.474Z,948.58
2019-02-10T09:53:02.419Z,948.52
2019-02-10T09:54:02.390Z,948.56
2019-02-10T09:55:02.307Z,948.50
2019-02-10T09:56:02.296Z,948.50
2019-02-10T09:57:02.266Z,948.49
2019-02-10T09:58:02.136Z,948.56
2019-02-10T09:59:02.085Z,948.46
2019-02-10T10:00:02.031Z,948.47
2019-02-10T10:01:02.041Z,948.38
2019-02-10T10:02:01.946Z,948.43
2019-02-10T10:03:01.861Z,948.35
2019-02-10T10:04:01.842Z,948.44
2019-02-10T10:05:01.744Z,948.31
2019-02-10T10:06:01.690Z,948.39
2019-02-10T10:07:01.675Z,948.32
2019-02-10T10:08:01.591Z,948.35
2019-02-10T10:09:01.520Z,948.33
2019-02-10T10:10:01.469Z,948.26
2019-02-10T10:11:01.403Z,948.21
2019-02-10T10:12:01.379Z,948.16
2019-02-10T10:13:01.320Z,948.24
2019-02-10T10:14:01.236Z,948.22
2019-02-10T10:15:01.178Z,948.21
2019-02-10T10:16:01.121Z,948.12
2019-02-10T10:17:01.123Z,947.94
2019-02-10T10:18:01.149Z,947.90
2019-02-10T10:19:00.971Z,948.04
2019-02-10T10:20:00.949Z,947.97
2019-02-10T10:21:00.841Z,948.01
2019-02-10T10:22:00.782Z,947.98
2019-02-10T10:23:00.732Z,947.94
2019-02-10T10:24:00.671Z,947.96
2019-02-10T10:25:00.845Z,947.92
2019-02-10T10:26:00.557Z,947.91
2019-02-10T10:27:00.652Z,947.88
2019-02-10T10:28:00.447Z,947.89
2019-02-10T10:29:00.418Z,947.75
2019-02-10T10:30:00.329Z,947.71
2019-02-10T10:31:00.276Z,947.76
2019-02-10T10:32:00.220Z,947.64
2019-02-10T10:33:00.194Z,947.67
2019-02-10T10:34:00.105Z,947.64
2019-02-10T10:35:00.053Z,947.61
2019-02-10T10:35:59.992Z,947.61
2019-02-10T10:36:59.969Z,947.75
2019-02-10T10:37:59.916Z,947.71
2019-02-10T10:38:59.983Z,947.66
2019-02-10T10:39:59.769Z,947.65
2019-02-10T10:40:59.711Z,947.68
2019-02-10T10:41:59.655Z,947.68
2019-02-10T10:42:59.632Z,947.55
2019-02-10T10:43:59.546Z,947.68
2019-02-10T10:44:59.488Z,947.62
2019-02-10T10:46:00.726Z,947.73
2019-02-10T10:46:59.373Z,947.63
2019-02-10T10:47:59.348Z,947.51
2019-02-10T10:48:59.260Z,947.54
2019-02-10T10:49:59.207Z,947.68
2019-02-10T10:50:59.153Z,947.24
2019-02-10T10:51:59.092Z,947.47
2019-02-10T10:52:59.077Z,947.37
2019-02-10T10:53:59.013Z,947.26
2019-02-10T10:54:58.924Z,947.25
2019-02-10T10:55:58.865Z,947.25
2019-02-10T10:56:58.811Z,947.27
2019-02-10T10:57:58.759Z,947.18
2019-02-10T10:58:58.742Z,947.30
2019-02-10T10:59:58.644Z,947.24
2019-02-10T11:00:58.589Z,947.13
2019-02-10T11:01:58.531Z,947.18
2019-02-10T11:02:58.476Z,947.25
2019-02-10T11:03:58.453Z,947.18
2019-02-10T11:04:58.364Z,947.19
2019-02-10T11:05:58.346Z,947.16
2019-02-10T11:06:58.250Z,947.17
2019-02-10T11:07:58.198Z,947.10
2019-02-10T11:08:58.138Z,947.16
2019-02-10T11:09:58.080Z,947.12
2019-02-10T11:10:58.057Z,947.01
2019-02-10T11:11:57.976Z,946.99
2019-02-10T11:12:57.914Z,947.04
2019-02-10T11:13:57.863Z,947.14
2019-02-10T11:14:57.801Z,946.90
2019-02-10T11:15:57.777Z,946.92
2019-02-10T11:16:57.693Z,947.02
2019-02-10T11:17:57.631Z,946.92
2019-02-10T11:18:57.574Z,946.96
2019-02-10T11:19:57.520Z,946.78
2019-02-10T11:20:57.495Z,946.78
2019-02-10T11:21:57.411Z,946.87
2019-02-10T11:22:57.355Z,946.70
2019-02-10T11:23:57.296Z,946.66
2019-02-10T11:24:57.240Z,946.58
2019-02-10T11:25:57.225Z,946.49
2019-02-10T11:26:57.125Z,946.72
2019-02-10T11:27:57.073Z,946.61
2019-02-10T11:28:57.021Z,946.51
2019-02-10T11:29:56.956Z,946.51
2019-02-10T11:30:56.949Z,946.49
2019-02-10T11:31:56.849Z,946.46
2019-02-10T11:32:56.794Z,946.42
2019-02-10T11:33:56.734Z,946.42
2019-02-10T11:34:56.678Z,946.47
2019-02-10T11:35:56.657Z,946.39
2019-02-10T11:36:56.615Z,946.31
2019-02-10T11:37:56.506Z,946.31
2019-02-10T11:38:56.453Z,946.34
2019-02-10T11:39:56.397Z,946.25
2019-02-10T11:40:56.340Z,946.25
2019-02-10T11:41:56.340Z,946.30
2019-02-10T11:42:56.228Z,946.16
2019-02-10T11:43:56.174Z,946.16
2019-02-10T11:44:56.140Z,946.23
2019-02-10T11:45:56.072Z,946.11
2019-02-10T11:46:56.043Z,946.17
2019-02-10T11:47:55.987Z,946.09
2019-02-10T11:48:55.892Z,946.02
2019-02-10T11:49:55.838Z,946.00
2019-02-10T11:50:55.780Z,946.07
2019-02-10T11:51:55.811Z,946.04
2019-02-10T11:52:55.667Z,946.01
2019-02-10T11:53:55.610Z,945.95
2019-02-10T11:54:55.559Z,945.86
2019-02-10T11:55:55.609Z,946.04
2019-02-10T11:56:55.480Z,945.84
2019-02-10T11:57:55.387Z,945.87
2019-02-10T11:58:55.364Z,945.76
2019-02-10T11:59:55.275Z,945.84
2019-02-10T12:00:55.222Z,945.75
2019-02-10T12:01:55.198Z,945.79
2019-02-10T12:02:55.107Z,945.71
2019-02-10T12:03:55.051Z,945.69
2019-02-10T12:04:55.010Z,945.67
2019-02-10T12:05:54.939Z,945.67
2019-02-10T12:06:54.910Z,945.60
2019-02-10T12:07:54.827Z,945.62
2019-02-10T12:08:54.771Z,945.59
2019-02-10T12:09:54.746Z,945.53
2019-02-10T12:10:54.660Z,945.54
2019-02-10T12:11:54.600Z,945.46
2019-02-10T12:12:54.562Z,945.37
2019-02-10T12:13:54.489Z,945.35
2019-02-10T12:14:54.464Z,945.41
2019-02-10T12:15:54.379Z,945.38
2019-02-10T12:16:54.345Z,945.44
2019-02-10T12:17:54.287Z,945.26
2019-02-10T12:18:54.235Z,945.27
2019-02-10T12:19:54.186Z,945.21
2019-02-10T12:20:54.095Z,945.27
2019-02-10T12:21:54.040Z,945.21
2019-02-10T12:22:54.005Z,945.27
2019-02-10T12:23:53.974Z,945.32
2019-02-10T12:24:53.871Z,945.26
2019-02-10T12:25:53.818Z,945.22
2019-02-10T12:26:53.757Z,945.16
2019-02-10T12:27:53.702Z,945.18